Time;durP1;ratioP1;P1;durP2;ratioP2;P2;SDS_P1;SDS_P2;PMS_P1;PMS_P2;Temp;Humidity;BMP_temperature;BMP_pressure;BME280_temperature;BME280_humidity;BME280_pressure;Samples;Min_cycle;Max_cycle;Signal;HPM_P1;HPM_P2
2022/05/25 00:01:21;;;;;;;1.37;1.27;;;15.50;99.00;;;;;;6109720;23;20416;-87
2022/05/25 00:03:48;;;;;;;1.47;1.30;;;15.60;99.30;;;;;;6092703;23;20411;-88
2022/05/25 00:06:25;;;;;;;1.80;1.23;;;15.70;98.60;;;;;;6107226;23;20480;-87
2022/05/25 00:08:57;;;;;;;2.53;1.70;;;15.60;98.60;;;;;;6077183;23;20417;-86
2022/05/25 00:11:25;;;;;;;1.90;1.70;;;15.70;98.60;;;;;;6073951;23;20481;-86
2022/05/25 00:13:52;;;;;;;2.23;1.73;;;15.80;98.40;;;;;;6074062;23;20501;-87
2022/05/25 00:16:20;;;;;;;1.57;1.47;;;15.80;98.30;;;;;;6073717;23;20959;-86
2022/05/25 00:21:32;;;;;;;2.27;1.63;;;15.60;98.50;;;;;;6093057;23;20830;-85
2022/05/25 00:23:59;;;;;;;3.00;1.70;;;15.50;98.90;;;;;;6067865;23;20413;-85
2022/05/25 00:26:26;;;;;;;1.50;1.40;;;15.80;98.60;;;;;;6093389;23;20432;-84
2022/05/25 00:28:53;;;;;;;3.10;1.63;;;15.70;98.60;;;;;;6091087;23;20385;-85
2022/05/25 00:31:20;;;;;;;1.80;1.70;;;15.60;98.60;;;;;;6065940;23;20420;-84
2022/05/25 00:33:47;;;;;;;1.97;1.40;;;15.50;98.50;;;;;;6094747;23;20502;-86
2022/05/25 00:36:14;;;;;;;1.60;1.50;;;15.60;98.90;;;;;;6093694;23;21248;-84
2022/05/25 00:38:41;;;;;;;4.50;1.80;;;15.70;98.50;;;;;;6091451;23;20409;-83
2022/05/25 00:41:07;;;;;;;2.97;2.33;;;15.60;98.60;;;;;;6092408;23;20446;-86
2022/05/25 00:43:34;;;;;;;1.90;1.77;;;15.50;98.60;;;;;;6066181;23;20413;-84
2022/05/25 00:46:08;;;;;;;2.73;2.10;;;15.50;98.60;;;;;;6091107;23;20416;-85
2022/05/25 00:48:39;;;;;;;1.70;1.60;;;15.40;98.60;;;;;;6094722;23;21228;-87
2022/05/25 00:51:12;;;;;;;2.60;1.50;;;15.30;99.00;;;;;;6071868;23;20456;-90
2022/05/25 00:53:48;;;;;;;2.20;1.57;;;15.30;99.10;;;;;;6072849;23;20417;-84
2022/05/25 00:56:18;;;;;;;2.53;1.60;;;15.40;99.00;;;;;;6094684;23;20420;-84
2022/05/25 00:58:51;;;;;;;2.33;1.63;;;15.30;98.90;;;;;;6070080;23;20412;-85
2022/05/25 01:01:19;;;;;;;2.70;1.70;;;15.20;99.10;;;;;;6067661;23;20427;-86
2022/05/25 01:03:46;;;;;;;1.60;1.50;;;15.20;99.20;;;;;;6066193;23;20397;-86
2022/05/25 01:06:58;;;;;;;1.90;1.60;;;15.30;99.00;;;;;;6094267;23;20436;-84
2022/05/25 01:09:33;;;;;;;3.23;2.20;;;15.10;99.10;;;;;;6069099;23;20562;-88
2022/05/25 01:12:15;;;;;;;2.70;2.20;;;15.20;99.50;;;;;;6091037;23;20411;-85
2022/05/25 01:15:25;;;;;;;1.80;1.70;;;15.10;99.50;;;;;;6097149;23;20408;-85
2022/05/25 01:18:25;;;;;;;3.47;1.83;;;15.20;99.50;;;;;;6087559;23;20554;-86
2022/05/25 01:21:02;;;;;;;1.60;1.50;;;15.20;99.50;;;;;;6095887;23;20446;-86
2022/05/25 01:23:56;;;;;;;3.30;2.40;;;15.20;99.60;;;;;;6095181;23;20436;-86
2022/05/25 01:26:51;;;;;;;1.93;1.73;;;15.10;99.60;;;;;;6068919;23;20424;-83
2022/05/25 01:29:51;;;;;;;2.47;1.83;;;15.00;99.80;;;;;;6069487;23;20385;-86
2022/05/25 01:32:43;;;;;;;3.50;1.70;;;15.00;99.90;;;;;;6070115;23;20409;-85
2022/05/25 01:35:25;;;;;;;2.83;1.90;;;15.10;99.60;;;;;;6069191;23;20393;-87
2022/05/25 01:38:00;;;;;;;2.23;2.03;;;15.00;99.80;;;;;;6092851;23;20440;-86
2022/05/25 01:40:55;;;;;;;1.80;1.70;;;14.90;99.90;;;;;;6099352;23;20402;-87
2022/05/25 01:43:47;;;;;;;3.33;1.90;;;14.90;99.90;;;;;;6070960;23;20407;-87
2022/05/25 01:46:18;;;;;;;3.13;1.80;;;14.80;99.90;;;;;;6087435;23;20405;-87
2022/05/25 01:48:48;;;;;;;4.63;1.90;;;14.90;99.90;;;;;;6115959;23;20407;-87
2022/05/25 01:51:19;;;;;;;2.13;1.80;;;15.00;99.90;;;;;;6092135;23;20385;-84
2022/05/25 01:53:52;;;;;;;2.53;2.00;;;15.00;99.80;;;;;;6073618;23;20774;-85
2022/05/25 01:56:21;;;;;;;3.57;1.93;;;15.00;99.70;;;;;;6100322;23;20429;-87
2022/05/25 01:58:55;;;;;;;2.53;2.33;;;15.00;99.60;;;;;;6096730;23;20478;-84
2022/05/25 02:01:22;;;;;;;2.33;1.83;;;15.00;99.80;;;;;;6094677;23;20463;-88
2022/05/25 02:06:55;;;;;;;2.43;2.00;;;14.90;99.90;;;;;;6100526;23;20460;-85
2022/05/25 02:09:56;;;;;;;3.37;2.33;;;14.90;99.90;;;;;;6070488;23;20385;-87
2022/05/25 02:12:55;;;;;;;2.60;2.40;;;14.80;99.90;;;;;;6096590;23;20420;-85
2022/05/25 02:15:51;;;;;;;3.60;2.40;;;14.80;99.90;;;;;;5994632;23;20408;-86
2022/05/25 02:18:32;;;;;;;3.33;2.50;;;14.70;99.90;;;;;;6046778;23;20436;-86
2022/05/25 02:21:09;;;;;;;2.50;2.30;;;14.80;99.90;;;;;;6115995;23;20389;-87
2022/05/25 02:23:46;;;;;;;2.87;2.57;;;14.90;99.90;;;;;;6093821;23;20415;-88
2022/05/25 02:26:21;;;;;;;3.20;2.40;;;14.90;99.80;;;;;;6091974;23;20428;-89
2022/05/25 02:29:11;;;;;;;3.57;2.37;;;14.80;99.90;;;;;;6091977;23;20401;-87
2022/05/25 02:31:45;;;;;;;2.60;2.40;;;14.80;99.90;;;;;;6096893;23;20431;-85
2022/05/25 02:34:16;;;;;;;2.40;2.20;;;14.80;99.90;;;;;;6100243;23;20415;-86
2022/05/25 02:36:45;;;;;;;2.50;2.30;;;14.90;99.70;;;;;;6091345;23;20429;-88
2022/05/25 02:39:13;;;;;;;3.47;2.40;;;14.80;99.80;;;;;;6115123;23;20404;-88
2022/05/25 02:41:54;;;;;;;3.93;2.40;;;14.80;99.80;;;;;;6110093;23;20436;-88
2022/05/25 02:44:22;;;;;;;2.80;2.60;;;14.70;99.90;;;;;;6067333;23;20495;-85
2022/05/25 02:46:49;;;;;;;4.33;2.23;;;14.80;99.90;;;;;;6063013;23;20433;-87
2022/05/25 02:49:16;;;;;;;3.13;2.17;;;14.80;99.60;;;;;;6089865;23;20393;-87
2022/05/25 02:51:43;;;;;;;6.13;2.53;;;14.70;99.70;;;;;;6062943;23;20416;-87
2022/05/25 02:54:10;;;;;;;3.13;2.73;;;14.70;99.80;;;;;;6066061;23;20420;-84
2022/05/25 02:56:37;;;;;;;2.43;2.03;;;14.60;99.90;;;;;;6061694;23;20432;-85
2022/05/25 02:59:04;;;;;;;2.50;2.30;;;14.60;99.90;;;;;;6063055;23;21050;-84
2022/05/25 03:01:33;;;;;;;2.20;2.07;;;14.50;99.90;;;;;;6086295;23;20519;-88
2022/05/25 03:03:59;;;;;;;3.13;2.73;;;14.50;99.90;;;;;;6062585;23;20454;-86
2022/05/25 03:06:26;;;;;;;3.30;2.40;;;14.70;99.80;;;;;;6089047;23;20507;-84
2022/05/25 03:08:53;;;;;;;5.03;2.20;;;14.50;99.70;;;;;;6063830;23;20904;-84
2022/05/25 03:11:20;;;;;;;2.17;1.97;;;14.40;99.90;;;;;;6100009;23;20487;-85
2022/05/25 03:13:48;;;;;;;1.90;1.73;;;14.40;99.80;;;;;;6071355;23;20415;-88
2022/05/25 03:16:18;;;;;;;3.50;1.83;;;14.30;99.90;;;;;;6089895;23;20523;-85
2022/05/25 03:18:46;;;;;;;3.20;2.30;;;14.50;99.80;;;;;;6092336;23;20484;-86
2022/05/25 03:21:13;;;;;;;1.57;1.47;;;14.40;99.80;;;;;;6065440;23;20436;-86
2022/05/25 03:23:40;;;;;;;4.10;1.70;;;14.30;99.80;;;;;;6042351;23;20479;-86
2022/05/25 03:26:07;;;;;;;1.70;1.60;;;14.40;99.90;;;;;;6073122;23;20448;-85
2022/05/25 03:28:35;;;;;;;3.27;1.97;;;14.50;99.90;;;;;;6092731;23;20405;-88
2022/05/25 03:31:04;;;;;;;2.57;1.60;;;14.40;99.70;;;;;;6066068;23;20430;-86
2022/05/25 03:33:35;;;;;;;3.03;2.73;;;14.40;99.40;;;;;;6065513;23;20413;-87
2022/05/25 03:36:02;;;;;;;1.87;1.77;;;14.30;99.30;;;;;;6066368;23;20487;-87
2022/05/25 03:38:30;;;;;;;3.73;1.90;;;14.30;99.40;;;;;;6066444;23;20483;-85
2022/05/25 03:40:58;;;;;;;7.13;2.37;;;14.20;99.50;;;;;;6065686;23;20441;-83
2022/05/25 03:43:31;;;;;;;1.93;1.60;;;14.20;99.60;;;;;;6093703;23;20838;-86
2022/05/25 03:45:58;;;;;;;3.83;2.50;;;14.20;99.60;;;;;;6067548;23;20479;-86
2022/05/25 03:48:24;;;;;;;2.60;1.87;;;14.20;99.50;;;;;;6093471;23;20436;-85
2022/05/25 03:50:54;;;;;;;1.97;1.87;;;14.20;99.60;;;;;;6067748;23;20409;-86
2022/05/25 03:53:21;;;;;;;2.03;1.80;;;14.10;99.80;;;;;;6093743;23;20426;-84
2022/05/25 03:55:49;;;;;;;2.93;1.80;;;14.00;99.70;;;;;;6093688;23;20471;-84
2022/05/25 03:58:16;;;;;;;4.20;2.03;;;14.00;99.90;;;;;;6074663;23;20742;-86
2022/05/25 04:00:44;;;;;;;2.70;2.50;;;14.10;99.90;;;;;;6094816;23;20489;-86
2022/05/25 04:03:15;;;;;;;2.43;2.20;;;14.10;99.90;;;;;;6094140;23;20483;-85
2022/05/25 04:05:43;;;;;;;3.20;1.83;;;14.20;99.80;;;;;;6092706;23;20433;-86
2022/05/25 04:08:10;;;;;;;4.07;2.60;;;14.20;99.40;;;;;;6078912;23;20421;-88
2022/05/25 04:10:37;;;;;;;4.17;2.43;;;14.10;99.70;;;;;;6099563;23;20727;-86
2022/05/25 04:13:05;;;;;;;2.80;2.17;;;14.30;99.70;;;;;;6069082;23;20448;-86
2022/05/25 04:15:34;;;;;;;2.30;2.10;;;14.30;99.50;;;;;;6067489;23;20404;-85
2022/05/25 04:18:01;;;;;;;5.10;2.40;;;14.20;99.50;;;;;;6068530;23;20433;-84
2022/05/25 04:20:29;;;;;;;2.50;2.20;;;14.20;99.60;;;;;;6066368;23;20468;-87
2022/05/25 04:22:56;;;;;;;2.50;2.30;;;14.10;99.60;;;;;;6068039;23;20464;-85
2022/05/25 04:25:24;;;;;;;2.73;2.07;;;14.10;99.60;;;;;;6067431;23;20420;-87
2022/05/25 04:28:00;;;;;;;3.97;3.63;;;14.10;99.60;;;;;;6089626;23;20444;-84
2022/05/25 04:30:29;;;;;;;2.60;2.40;;;14.10;99.70;;;;;;6092394;23;20419;-86
2022/05/25 04:32:56;;;;;;;4.10;2.43;;;14.10;99.70;;;;;;6066758;23;21066;-85
2022/05/25 04:35:24;;;;;;;3.10;2.80;;;14.10;99.70;;;;;;6091546;23;20448;-83
2022/05/25 04:37:53;;;;;;;2.83;2.40;;;14.10;99.70;;;;;;6095715;23;20492;-86
2022/05/25 04:40:28;;;;;;;5.20;2.63;;;14.10;99.70;;;;;;6091307;23;20507;-86
2022/05/25 04:42:56;;;;;;;5.47;2.23;;;14.20;99.70;;;;;;6067756;23;21247;-87
2022/05/25 04:45:27;;;;;;;3.23;2.23;;;14.20;99.70;;;;;;6066518;23;20491;-85
2022/05/25 04:47:58;;;;;;;7.07;4.13;;;14.20;99.60;;;;;;6090803;23;20491;-86
2022/05/25 04:50:29;;;;;;;3.83;2.67;;;14.10;99.70;;;;;;6067770;23;20712;-86
2022/05/25 04:52:59;;;;;;;5.47;2.80;;;14.20;99.90;;;;;;6093362;23;20404;-86
2022/05/25 04:58:32;;;;;;;4.70;1.97;;;14.20;99.30;;;;;;6093454;23;20436;-87
2022/05/25 05:01:00;;;;;;;4.80;2.30;;;14.20;99.70;;;;;;6069764;23;20492;-87
2022/05/25 05:03:28;;;;;;;5.50;2.30;;;14.20;99.70;;;;;;6096258;23;20440;-86
2022/05/25 05:05:56;;;;;;;5.53;2.43;;;14.20;99.70;;;;;;6071381;23;20405;-86
2022/05/25 05:08:24;;;;;;;4.77;2.73;;;14.30;99.50;;;;;;6086853;23;20456;-89
2022/05/25 05:10:53;;;;;;;2.87;2.37;;;14.30;99.40;;;;;;6092163;23;20411;-88
2022/05/25 05:13:23;;;;;;;5.60;4.23;;;14.40;99.40;;;;;;6075862;23;20486;-86
2022/05/25 05:15:53;;;;;;;7.77;3.03;;;14.40;99.30;;;;;;6069558;23;20942;-87
2022/05/25 05:18:23;;;;;;;3.47;2.67;;;14.40;99.00;;;;;;6094885;23;21022;-85
2022/05/25 05:20:51;;;;;;;4.90;3.23;;;14.50;99.10;;;;;;6072356;23;20423;-86
2022/05/25 05:23:19;;;;;;;3.80;2.57;;;14.50;99.00;;;;;;6082925;23;20831;-87
2022/05/25 05:25:57;;;;;;;2.87;2.60;;;14.50;98.90;;;;;;6096910;23;20471;-88
2022/05/25 05:28:29;;;;;;;10.23;3.57;;;14.50;98.80;;;;;;6068842;23;20433;-87
2022/05/25 05:30:58;;;;;;;4.20;3.00;;;14.60;98.80;;;;;;6095260;23;20413;-87
2022/05/25 05:33:27;;;;;;;6.23;3.53;;;14.50;98.80;;;;;;6098876;23;20527;-88
2022/05/25 05:36:00;;;;;;;4.47;3.07;;;14.50;98.80;;;;;;6100027;23;20516;-86
2022/05/25 05:38:30;;;;;;;5.13;3.67;;;14.60;98.80;;;;;;6093699;23;20476;-87
2022/05/25 05:40:57;;;;;;;5.40;3.63;;;14.60;98.50;;;;;;6092825;23;20416;-86
2022/05/25 05:43:34;;;;;;;5.57;4.03;;;14.70;98.60;;;;;;6067653;23;20443;-87
2022/05/25 05:46:09;;;;;;;4.60;2.97;;;14.70;98.40;;;;;;6068489;23;20389;-87
2022/05/25 05:48:39;;;;;;;10.40;4.00;;;14.70;98.40;;;;;;6093672;23;20420;-85
2022/05/25 05:51:07;;;;;;;4.17;3.27;;;14.90;98.30;;;;;;6093451;23;20586;-87
2022/05/25 05:53:34;;;;;;;6.97;3.60;;;14.90;97.80;;;;;;6100006;23;20416;-85
2022/05/25 05:56:01;;;;;;;3.23;2.93;;;14.90;97.40;;;;;;6094240;23;20421;-85
2022/05/25 05:58:28;;;;;;;8.33;4.67;;;14.80;97.50;;;;;;6069157;23;20451;-86
2022/05/25 06:00:55;;;;;;;4.30;2.80;;;14.90;97.60;;;;;;6094190;23;20456;-84
2022/05/25 06:03:22;;;;;;;5.87;2.80;;;15.00;97.50;;;;;;6071009;23;20455;-85
2022/05/25 06:05:49;;;;;;;6.07;2.60;;;15.00;97.20;;;;;;6094914;23;20435;-85
2022/05/25 06:08:18;;;;;;;3.67;2.50;;;15.00;97.10;;;;;;6071508;23;20460;-85
2022/05/25 06:10:46;;;;;;;4.97;3.00;;;15.00;96.90;;;;;;6069967;23;20419;-86
2022/05/25 06:13:16;;;;;;;3.43;2.70;;;15.10;96.80;;;;;;6093174;23;20505;-84
2022/05/25 06:21:25;;;;;;;4.70;2.43;;;15.20;96.60;;;;;;6113192;23;20798;-83
2022/05/25 06:23:57;;;;;;;5.97;4.17;;;15.30;96.10;;;;;;6076728;23;20429;-85
2022/05/25 06:26:27;;;;;;;3.37;2.33;;;15.30;95.80;;;;;;6072338;23;20819;-85
2022/05/25 06:28:56;;;;;;;2.80;2.53;;;15.30;95.20;;;;;;6095107;23;20670;-86
2022/05/25 06:31:25;;;;;;;3.53;2.50;;;15.30;95.60;;;;;;6095014;23;20413;-87
2022/05/25 06:34:02;;;;;;;3.93;2.50;;;15.40;95.30;;;;;;6070419;23;20416;-85
2022/05/25 06:36:42;;;;;;;3.50;1.90;;;15.40;95.00;;;;;;6093330;23;20440;-84
2022/05/25 06:39:09;;;;;;;3.67;2.13;;;15.70;94.70;;;;;;6096148;23;20424;-86
2022/05/25 06:41:36;;;;;;;3.73;2.30;;;16.20;93.10;;;;;;6097937;23;20400;-86
2022/05/25 06:44:06;;;;;;;4.00;2.23;;;16.20;92.80;;;;;;6098829;23;20486;-87
2022/05/25 06:46:33;;;;;;;2.03;1.83;;;15.90;93.10;;;;;;6070095;23;20422;-86
2022/05/25 06:49:00;;;;;;;4.03;1.53;;;15.70;93.10;;;;;;6069489;23;20459;-86
2022/05/25 06:51:32;;;;;;;4.97;1.70;;;15.80;93.10;;;;;;6070736;23;20423;-86
2022/05/25 06:54:05;;;;;;;2.13;1.30;;;16.10;92.90;;;;;;6074147;23;20875;-86
2022/05/25 06:56:32;;;;;;;2.93;1.60;;;15.90;92.90;;;;;;6102103;23;20437;-83
2022/05/25 06:59:00;;;;;;;2.93;2.03;;;15.80;93.00;;;;;;6103815;23;20416;-86
2022/05/25 07:01:28;;;;;;;3.67;2.30;;;15.80;92.90;;;;;;6093931;23;20431;-87
2022/05/25 07:03:55;;;;;;;2.87;1.73;;;15.90;93.10;;;;;;6095072;23;20444;-84
2022/05/25 07:06:23;;;;;;;5.30;1.50;;;15.90;93.10;;;;;;6041928;23;20437;-86
2022/05/25 07:08:55;;;;;;;5.47;1.60;;;16.00;92.90;;;;;;6063565;23;20404;-84
2022/05/25 07:11:43;;;;;;;4.80;1.50;;;16.10;92.60;;;;;;6082141;23;20439;-84
2022/05/25 07:14:10;;;;;;;1.50;1.40;;;16.20;92.40;;;;;;6079206;23;20461;-88
2022/05/25 07:16:48;;;;;;;1.73;1.37;;;16.70;92.00;;;;;;6104706;23;20432;-87
2022/05/25 07:19:23;;;;;;;5.40;1.30;;;17.10;91.00;;;;;;6075661;23;20428;-85
2022/05/25 07:21:51;;;;;;;3.80;1.70;;;16.80;90.70;;;;;;6086959;23;20444;-85
2022/05/25 07:24:19;;;;;;;2.87;1.80;;;16.60;91.40;;;;;;6097128;23;20983;-86
2022/05/25 07:26:46;;;;;;;2.07;1.40;;;16.90;90.90;;;;;;6069573;23;20520;-87
2022/05/25 07:29:14;;;;;;;2.17;1.00;;;16.80;91.30;;;;;;6100306;23;20456;-87
2022/05/25 07:31:55;;;;;;;1.83;1.20;;;16.70;91.00;;;;;;6090630;23;20429;-88
2022/05/25 07:37:44;;;;;;;1.47;0.90;;;17.10;88.50;;;;;;6097080;23;20440;-88
2022/05/25 07:40:23;;;;;;;1.30;1.20;;;16.90;88.70;;;;;;6090814;23;20393;-86
2022/05/25 07:42:56;;;;;;;1.53;1.10;;;16.90;88.90;;;;;;6090007;23;20526;-85
2022/05/25 07:45:23;;;;;;;1.53;1.00;;;16.90;89.50;;;;;;6087591;23;20452;-87
2022/05/25 07:48:00;;;;;;;4.33;3.10;;;17.00;89.10;;;;;;6082032;23;20495;-85
2022/05/25 07:50:46;;;;;;;1.90;1.23;;;17.00;89.00;;;;;;6071465;23;20763;-84
2022/05/25 07:56:25;;;;;;;2.17;1.20;;;17.20;87.30;;;;;;6094004;23;20417;-84
2022/05/25 07:59:18;;;;;;;1.13;1.03;;;17.20;87.10;;;;;;6072351;23;20420;-85
2022/05/25 08:05:43;;;;;;;1.83;1.50;;;17.60;86.30;;;;;;6096095;23;20388;-86
2022/05/25 08:08:35;;;;;;;1.13;1.03;;;18.50;84.50;;;;;;6074081;23;20979;-87
2022/05/25 08:11:14;;;;;;;2.60;1.07;;;18.30;83.10;;;;;;6094714;23;21465;-88
2022/05/25 08:13:54;;;;;;;1.30;1.13;;;19.20;80.80;;;;;;6071515;23;20413;-86
2022/05/25 08:19:30;;;;;;;1.40;0.87;;;19.20;71.90;;;;;;6125182;23;21054;-84
2022/05/25 08:22:43;;;;;;;1.37;0.50;;;18.80;72.10;;;;;;6010789;23;20623;-87
2022/05/25 08:25:26;;;;;;;0.63;0.60;;;19.40;70.90;;;;;;5968946;23;20979;-87
2022/05/25 08:27:59;;;;;;;0.73;0.60;;;19.30;70.10;;;;;;5978483;23;20432;-87
2022/05/25 08:30:34;;;;;;;0.87;0.50;;;20.60;67.00;;;;;;5977303;24;20412;-86
2022/05/25 08:33:01;;;;;;;0.80;0.60;;;20.40;65.20;;;;;;5955383;24;20635;-86
2022/05/25 08:35:29;;;;;;;0.50;0.50;;;20.20;64.50;;;;;;5981569;23;20487;-86
2022/05/25 08:37:57;;;;;;;0.90;0.57;;;20.20;63.80;;;;;;5956149;24;20910;-86
2022/05/25 08:40:27;;;;;;;0.50;0.50;;;20.40;62.70;;;;;;5958506;24;20404;-87
2022/05/25 08:43:37;;;;;;;1.43;0.50;;;22.20;58.30;;;;;;5963109;24;20519;-85
2022/05/25 08:48:42;;;;;;;1.10;0.80;;;22.50;54.10;;;;;;6074565;23;20429;-86
2022/05/25 08:51:46;;;;;;;1.80;0.83;;;22.40;54.50;;;;;;6069170;23;20469;-87
2022/05/25 08:54:28;;;;;;;0.90;0.60;;;22.80;54.30;;;;;;6078832;23;20781;-87
2022/05/25 08:57:17;;;;;;;3.57;0.60;;;24.40;51.30;;;;;;6061790;23;21335;-86
2022/05/25 09:00:05;;;;;;;0.70;0.60;;;26.60;46.40;;;;;;6037292;23;20403;-86
2022/05/25 09:03:00;;;;;;;0.70;0.40;;;27.60;42.90;;;;;;6040326;23;20425;-86
2022/05/25 09:06:21;;;;;;;1.57;0.60;;;28.50;40.40;;;;;;6038080;23;20422;-87
2022/05/25 09:09:04;;;;;;;1.30;0.47;;;27.80;40.20;;;;;;5952010;24;20531;-86
2022/05/25 09:11:50;;;;;;;0.60;0.60;;;27.30;39.20;;;;;;6061795;23;20407;-86
2022/05/25 09:14:58;;;;;;;0.97;0.50;;;26.60;39.70;;;;;;6037883;23;20453;-88
2022/05/25 09:17:55;;;;;;;0.60;0.40;;;26.30;40.20;;;;;;6031391;23;20502;-89
2022/05/25 09:20:31;;;;;;;2.60;0.70;;;25.80;39.80;;;;;;6047224;23;20418;-88
2022/05/25 09:23:01;;;;;;;1.30;0.50;;;25.90;40.90;;;;;;6051585;23;20581;-87
2022/05/25 09:25:30;;;;;;;1.90;0.53;;;28.20;38.30;;;;;;6054318;23;20433;-85
2022/05/25 09:28:07;;;;;;;1.47;0.50;;;29.20;37.20;;;;;;6054923;23;20434;-87
2022/05/25 09:30:39;;;;;;;1.60;0.90;;;28.80;35.90;;;;;;6053815;23;20457;-86
2022/05/25 09:33:40;;;;;;;0.97;0.50;;;28.30;36.20;;;;;;6051477;23;20473;-88
2022/05/25 09:36:10;;;;;;;1.47;0.50;;;26.80;37.60;;;;;;6054300;23;20398;-89
2022/05/25 09:41:44;;;;;;;1.20;0.73;;;27.70;36.20;;;;;;6103633;23;20496;-87
2022/05/25 09:44:32;;;;;;;0.80;0.40;;;25.90;37.30;;;;;;6086032;23;20539;-84
2022/05/25 09:47:42;;;;;;;0.83;0.60;;;25.10;39.40;;;;;;6107556;23;20421;-90
2022/05/25 09:50:36;;;;;;;0.50;0.50;;;25.40;39.70;;;;;;6043164;23;20405;-85
2022/05/25 09:53:14;;;;;;;0.70;0.50;;;26.00;38.70;;;;;;6084030;23;20482;-88
2022/05/25 09:56:33;;;;;;;1.70;0.70;;;28.30;35.60;;;;;;6089404;23;20423;-87
2022/05/25 09:59:38;;;;;;;0.90;0.40;;;27.70;35.70;;;;;;6108054;23;20417;-86
2022/05/25 10:02:24;;;;;;;1.13;0.50;;;27.50;35.70;;;;;;6082886;23;20502;-89
2022/05/25 10:04:56;;;;;;;1.30;0.50;;;27.10;36.70;;;;;;6083625;23;20440;-90
2022/05/25 10:07:37;;;;;;;0.90;0.70;;;26.50;37.20;;;;;;6081868;23;20437;-88
2022/05/25 10:10:27;;;;;;;1.03;0.50;;;26.30;37.80;;;;;;6081459;23;20478;-87
2022/05/25 10:13:22;;;;;;;0.50;0.50;;;26.10;37.40;;;;;;6056165;23;20730;-85
2022/05/25 10:15:52;;;;;;;0.67;0.67;;;26.90;36.70;;;;;;6103970;23;20412;-87
2022/05/25 10:18:35;;;;;;;2.20;1.20;;;28.20;34.20;;;;;;6102449;23;20435;-87
2022/05/25 10:21:04;;;;;;;0.60;0.50;;;27.70;35.10;;;;;;6081676;23;20392;-86
2022/05/25 10:23:31;;;;;;;0.93;0.53;;;28.10;34.70;;;;;;6076912;23;20901;-85
2022/05/25 10:26:12;;;;;;;0.77;0.70;;;27.40;34.70;;;;;;6097255;23;20440;-86
2022/05/25 10:28:53;;;;;;;0.77;0.60;;;26.50;34.80;;;;;;6097096;23;20401;-87
2022/05/25 10:37:07;;;;;;;0.90;0.53;;;26.50;35.20;;;;;;6095186;23;20436;-88
2022/05/25 10:39:40;;;;;;;1.23;0.80;;;26.00;36.70;;;;;;6069667;23;20452;-89
2022/05/25 10:42:37;;;;;;;0.50;0.50;;;26.40;36.70;;;;;;6098534;23;20429;-86
2022/05/25 10:45:21;;;;;;;1.80;0.50;;;26.90;35.70;;;;;;6021675;23;20476;-87
2022/05/25 10:47:51;;;;;;;2.20;0.50;;;26.40;36.80;;;;;;6116041;23;20567;-86
2022/05/25 10:50:57;;;;;;;0.80;0.60;;;26.30;36.90;;;;;;6099969;23;20421;-86
2022/05/25 10:57:21;;;;;;;0.70;0.60;;;26.00;36.40;;;;;;6124723;23;20443;-85
2022/05/25 10:59:59;;;;;;;0.70;0.60;;;25.90;36.00;;;;;;6098687;23;20414;-87
2022/05/25 11:02:54;;;;;;;3.33;0.60;;;25.80;36.60;;;;;;6129269;23;20428;-87
2022/05/25 11:05:56;;;;;;;1.47;0.57;;;26.00;36.50;;;;;;6101023;23;20416;-85
2022/05/25 11:08:45;;;;;;;0.50;0.50;;;26.10;35.90;;;;;;6067425;23;20444;-85
2022/05/25 11:11:21;;;;;;;1.17;0.40;;;26.10;36.00;;;;;;6125580;23;20416;-86
2022/05/25 11:14:24;;;;;;;0.70;0.40;;;25.70;36.10;;;;;;6100424;23;20466;-86
2022/05/25 11:17:13;;;;;;;0.50;0.40;;;25.70;36.40;;;;;;6124431;23;20439;-85
2022/05/25 11:20:15;;;;;;;0.70;0.50;;;26.40;35.90;;;;;;6105026;23;20420;-86
2022/05/25 11:23:17;;;;;;;1.00;0.60;;;26.60;35.70;;;;;;5976573;24;20518;-89
2022/05/25 11:26:04;;;;;;;0.50;0.50;;;26.40;36.00;;;;;;6123417;23;20410;-87
2022/05/25 11:29:20;;;;;;;0.70;0.50;;;27.40;34.00;;;;;;6116763;23;20395;-88
2022/05/25 11:32:21;;;;;;;1.83;0.80;;;26.90;34.50;;;;;;6144988;23;20395;-88
2022/05/25 11:35:04;;;;;;;1.00;0.60;;;26.40;35.60;;;;;;6119534;23;20398;-88
2022/05/25 11:37:57;;;;;;;1.10;0.60;;;26.20;36.00;;;;;;6141433;23;20447;-89
2022/05/25 11:40:40;;;;;;;1.50;0.67;;;26.40;35.20;;;;;;6046429;23;20425;-90
2022/05/25 11:43:45;;;;;;;1.13;0.73;;;25.40;36.60;;;;;;6105101;23;20510;-88
2022/05/25 11:46:38;;;;;;;1.50;0.87;;;25.10;37.60;;;;;;6095339;23;20806;-85
2022/05/25 11:49:46;;;;;;;2.93;0.50;;;24.80;37.40;;;;;;6099091;23;20399;-86
2022/05/25 11:52:45;;;;;;;0.87;0.63;;;24.90;37.50;;;;;;6123232;23;20447;-87
2022/05/25 11:55:24;;;;;;;0.80;0.50;;;25.00;37.30;;;;;;6098609;23;20915;-88
2022/05/25 11:57:56;;;;;;;0.60;0.50;;;25.10;37.60;;;;;;6124264;23;20511;-87
2022/05/25 12:00:35;;;;;;;0.60;0.50;;;25.50;37.40;;;;;;6096978;23;20400;-85
2022/05/25 12:03:23;;;;;;;0.67;0.53;;;25.50;35.70;;;;;;6095375;23;20422;-87
2022/05/25 12:06:06;;;;;;;1.90;0.80;;;25.10;36.00;;;;;;6119630;23;20437;-85
2022/05/25 12:08:59;;;;;;;1.07;0.40;;;24.90;37.20;;;;;;6096730;23;20427;-86
2022/05/25 12:11:42;;;;;;;0.50;0.50;;;26.40;35.60;;;;;;6094217;23;20780;-84
2022/05/25 12:14:31;;;;;;;1.53;0.80;;;26.20;35.70;;;;;;6090598;23;20400;-83
2022/05/25 12:17:13;;;;;;;1.20;0.90;;;26.00;36.00;;;;;;6115584;23;21238;-84
2022/05/25 12:19:48;;;;;;;0.60;0.47;;;25.70;35.90;;;;;;6116971;23;20483;-84
2022/05/25 12:22:21;;;;;;;2.60;0.70;;;25.70;36.00;;;;;;6093800;23;20404;-85
2022/05/25 12:24:52;;;;;;;1.37;0.57;;;25.50;36.00;;;;;;6102503;23;20507;-84
2022/05/25 12:27:22;;;;;;;2.40;0.60;;;24.90;36.60;;;;;;6123703;23;20432;-84
2022/05/25 12:29:55;;;;;;;0.90;0.60;;;24.40;36.80;;;;;;6123508;23;20412;-87
2022/05/25 12:32:27;;;;;;;2.17;1.30;;;24.20;37.40;;;;;;6096247;23;20511;-85
2022/05/25 12:34:55;;;;;;;0.80;0.50;;;24.10;37.40;;;;;;6117612;23;20458;-86
2022/05/25 12:37:37;;;;;;;1.33;0.90;;;24.30;37.50;;;;;;6091013;23;20471;-84
2022/05/25 12:40:05;;;;;;;1.27;0.70;;;24.50;36.70;;;;;;6095885;23;20414;-84
2022/05/25 12:42:41;;;;;;;1.10;0.60;;;24.70;36.40;;;;;;6118328;23;20422;-87
2022/05/25 12:48:31;;;;;;;1.37;0.70;;;25.20;36.00;;;;;;6124365;23;20560;-84
2022/05/25 12:51:05;;;;;;;0.60;0.60;;;25.90;35.20;;;;;;6098985;23;20410;-88
2022/05/25 12:53:40;;;;;;;1.47;0.60;;;25.40;36.10;;;;;;6098797;23;20478;-84
2022/05/25 12:56:34;;;;;;;2.00;0.93;;;25.80;35.30;;;;;;6131198;23;20427;-85
2022/05/25 12:59:07;;;;;;;2.80;0.63;;;25.50;35.30;;;;;;6093863;23;20421;-84
2022/05/25 13:01:37;;;;;;;2.50;0.50;;;26.30;34.40;;;;;;6104457;23;20407;-85
2022/05/25 13:04:38;;;;;;;1.40;1.30;;;25.60;34.40;;;;;;6102678;23;20454;-84
2022/05/25 13:07:09;;;;;;;0.90;0.60;;;25.70;34.70;;;;;;6099632;23;20435;-86
2022/05/25 13:09:41;;;;;;;0.90;0.67;;;25.50;35.10;;;;;;6099227;23;20407;-85
2022/05/25 13:12:39;;;;;;;2.10;1.37;;;25.40;35.40;;;;;;6101004;23;20447;-86
2022/05/25 13:15:16;;;;;;;1.50;0.83;;;25.30;35.90;;;;;;6130287;23;20996;-85
2022/05/25 13:17:46;;;;;;;2.90;0.70;;;25.30;37.00;;;;;;6102387;23;20491;-84
2022/05/25 13:20:15;;;;;;;3.97;1.10;;;25.30;36.10;;;;;;6128078;23;20404;-88
2022/05/25 13:22:42;;;;;;;0.70;0.70;;;25.40;35.90;;;;;;6101856;23;20439;-85
2022/05/25 13:25:34;;;;;;;1.90;1.10;;;25.40;36.40;;;;;;6109620;23;20515;-86
2022/05/25 13:28:20;;;;;;;2.40;1.00;;;25.30;36.30;;;;;;6117146;23;20443;-87
2022/05/25 13:30:56;;;;;;;1.67;0.80;;;25.00;36.50;;;;;;6116610;23;20424;-87
2022/05/25 13:33:27;;;;;;;2.47;0.93;;;24.80;37.00;;;;;;6105337;23;20455;-86
2022/05/25 13:36:05;;;;;;;2.10;0.90;;;24.80;37.50;;;;;;6101205;23;20412;-85
2022/05/25 13:38:51;;;;;;;0.97;0.87;;;24.80;37.10;;;;;;6103724;23;20417;-86
2022/05/25 13:41:22;;;;;;;1.30;0.60;;;24.80;37.20;;;;;;6116117;23;20416;-87
2022/05/25 13:43:58;;;;;;;1.00;0.70;;;24.60;37.00;;;;;;6108409;23;20463;-85
2022/05/25 13:46:42;;;;;;;4.30;1.00;;;24.40;37.50;;;;;;6132172;23;20461;-82
2022/05/25 13:49:16;;;;;;;1.00;0.70;;;24.30;37.80;;;;;;6123868;23;20412;-84
2022/05/25 13:51:43;;;;;;;1.00;0.70;;;24.80;37.40;;;;;;6101234;23;20400;-84
2022/05/25 13:54:23;;;;;;;1.27;0.70;;;24.40;37.70;;;;;;6126382;23;20430;-85
2022/05/25 13:57:34;;;;;;;2.67;0.97;;;24.30;38.50;;;;;;6101158;23;20483;-83
2022/05/25 14:00:24;;;;;;;1.27;1.00;;;24.40;38.50;;;;;;6098376;23;20408;-84
2022/05/25 14:02:55;;;;;;;0.87;0.70;;;24.40;38.80;;;;;;6099196;23;20411;-85
2022/05/25 14:05:45;;;;;;;1.80;0.80;;;24.40;39.00;;;;;;6127872;23;20463;-83
2022/05/25 14:08:22;;;;;;;1.40;0.77;;;24.30;38.90;;;;;;6122510;23;20463;-83
2022/05/25 14:11:03;;;;;;;1.37;0.60;;;24.20;39.30;;;;;;6128388;23;20402;-86
2022/05/25 14:13:35;;;;;;;1.00;0.80;;;24.10;39.40;;;;;;6126753;23;20479;-84
2022/05/25 14:16:09;;;;;;;0.60;0.57;;;24.10;39.50;;;;;;6125754;23;20495;-85
2022/05/25 14:18:44;;;;;;;2.90;0.80;;;24.40;39.30;;;;;;6100022;23;20403;-85
2022/05/25 14:21:34;;;;;;;0.80;0.80;;;24.50;38.70;;;;;;6095142;23;20834;-88
2022/05/25 14:24:13;;;;;;;3.00;0.77;;;24.30;39.20;;;;;;6099702;23;21583;-84